sensor_id;sensor_type;location;lat;lon;timestamp;temperature;humidity
62363;DHT22;48396;48.426;1.500;2022-11-11T00:00:15;13.00;99.90
62363;DHT22;48396;48.426;1.500;2022-11-11T00:02:41;13.00;99.90
62363;DHT22;48396;48.426;1.500;2022-11-11T00:05:06;13.10;99.90
62363;DHT22;48396;48.426;1.500;2022-11-11T00:07:32;13.10;99.90
62363;DHT22;48396;48.426;1.500;2022-11-11T00:09:58;13.00;99.90
62363;DHT22;48396;48.426;1.500;2022-11-11T00:12:24;12.90;99.90
62363;DHT22;48396;48.426;1.500;2022-11-11T00:14:49;12.90;99.90
62363;DHT22;48396;48.426;1.500;2022-11-11T00:17:15;12.90;99.90
62363;DHT22;48396;48.426;1.500;2022-11-11T00:19:59;12.90;99.90
62363;DHT22;48396;48.426;1.500;2022-11-11T00:22:43;12.90;99.90
62363;DHT22;48396;48.426;1.500;2022-11-11T00:25:28;12.90;99.90
62363;DHT22;48396;48.426;1.500;2022-11-11T00:27:53;12.90;99.90
62363;DHT22;48396;48.426;1.500;2022-11-11T00:30:19;12.90;99.90
62363;DHT22;48396;48.426;1.500;2022-11-11T00:32:45;12.90;99.90
62363;DHT22;48396;48.426;1.500;2022-11-11T00:35:11;12.90;99.90
62363;DHT22;48396;48.426;1.500;2022-11-11T00:38:06;12.90;99.90
62363;DHT22;48396;48.426;1.500;2022-11-11T00:40:32;12.80;99.90
62363;DHT22;48396;48.426;1.500;2022-11-11T00:42:57;12.80;99.90
62363;DHT22;48396;48.426;1.500;2022-11-11T00:45:23;12.70;99.90
62363;DHT22;48396;48.426;1.500;2022-11-11T00:47:49;12.70;99.90
62363;DHT22;48396;48.426;1.500;2022-11-11T00:50:33;12.70;99.90
62363;DHT22;48396;48.426;1.500;2022-11-11T00:53:20;12.50;99.90
62363;DHT22;48396;48.426;1.500;2022-11-11T00:55:46;12.50;99.90
62363;DHT22;48396;48.426;1.500;2022-11-11T00:58:11;12.50;99.90
62363;DHT22;48396;48.426;1.500;2022-11-11T01:00:37;12.50;99.90
62363;DHT22;48396;48.426;1.500;2022-11-11T01:03:03;12.60;99.90
62363;DHT22;48396;48.426;1.500;2022-11-11T01:05:29;12.80;99.90
62363;DHT22;48396;48.426;1.500;2022-11-11T01:07:55;12.80;99.90
62363;DHT22;48396;48.426;1.500;2022-11-11T01:10:21;12.70;99.90
62363;DHT22;48396;48.426;1.500;2022-11-11T01:13:17;12.80;99.90
62363;DHT22;48396;48.426;1.500;2022-11-11T01:15:46;12.90;99.90
62363;DHT22;48396;48.426;1.500;2022-11-11T01:18:14;12.80;99.90
62363;DHT22;48396;48.426;1.500;2022-11-11T01:20:42;12.80;99.90
62363;DHT22;48396;48.426;1.500;2022-11-11T01:23:09;12.80;99.90
62363;DHT22;48396;48.426;1.500;2022-11-11T01:25:36;12.90;99.90
62363;DHT22;48396;48.426;1.500;2022-11-11T01:28:04;12.80;99.90
62363;DHT22;48396;48.426;1.500;2022-11-11T01:30:31;12.80;99.90
62363;DHT22;48396;48.426;1.500;2022-11-11T01:32:58;12.90;99.90
62363;DHT22;48396;48.426;1.500;2022-11-11T01:35:24;12.90;99.90
62363;DHT22;48396;48.426;1.500;2022-11-11T01:37:50;12.90;99.90
62363;DHT22;48396;48.426;1.500;2022-11-11T01:40:15;13.00;99.90
62363;DHT22;48396;48.426;1.500;2022-11-11T01:42:52;13.00;99.90
62363;DHT22;48396;48.426;1.500;2022-11-11T01:45:57;12.90;99.90
62363;DHT22;48396;48.426;1.500;2022-11-11T01:48:38;12.90;99.90
62363;DHT22;48396;48.426;1.500;2022-11-11T01:51:28;13.00;99.90
62363;DHT22;48396;48.426;1.500;2022-11-11T01:53:59;12.90;99.90
62363;DHT22;48396;48.426;1.500;2022-11-11T01:56:27;12.90;99.90
62363;DHT22;48396;48.426;1.500;2022-11-11T01:58:55;12.90;99.90
62363;DHT22;48396;48.426;1.500;2022-11-11T02:01:22;12.90;99.90
62363;DHT22;48396;48.426;1.500;2022-11-11T02:03:49;12.90;99.90
62363;DHT22;48396;48.426;1.500;2022-11-11T02:06:35;12.80;99.90
62363;DHT22;48396;48.426;1.500;2022-11-11T02:09:02;12.90;99.90
62363;DHT22;48396;48.426;1.500;2022-11-11T02:11:31;12.80;99.90
62363;DHT22;48396;48.426;1.500;2022-11-11T02:14:16;12.80;99.90
62363;DHT22;48396;48.426;1.500;2022-11-11T02:17:05;12.80;99.90
62363;DHT22;48396;48.426;1.500;2022-11-11T02:19:47;12.70;99.90
62363;DHT22;48396;48.426;1.500;2022-11-11T02:22:37;12.70;99.90
62363;DHT22;48396;48.426;1.500;2022-11-11T02:25:07;12.60;99.90
62363;DHT22;48396;48.426;1.500;2022-11-11T02:27:36;12.60;99.90
62363;DHT22;48396;48.426;1.500;2022-11-11T02:30:04;12.60;99.90
62363;DHT22;48396;48.426;1.500;2022-11-11T02:32:30;12.70;99.90
62363;DHT22;48396;48.426;1.500;2022-11-11T02:34:56;12.70;99.90
62363;DHT22;48396;48.426;1.500;2022-11-11T02:37:24;12.70;99.90
62363;DHT22;48396;48.426;1.500;2022-11-11T02:39:53;12.70;99.90
62363;DHT22;48396;48.426;1.500;2022-11-11T02:42:21;12.70;99.90
62363;DHT22;48396;48.426;1.500;2022-11-11T02:44:48;12.60;99.90
62363;DHT22;48396;48.426;1.500;2022-11-11T02:47:14;12.50;99.90
62363;DHT22;48396;48.426;1.500;2022-11-11T02:49:39;12.60;99.90
62363;DHT22;48396;48.426;1.500;2022-11-11T02:52:05;12.70;99.90
62363;DHT22;48396;48.426;1.500;2022-11-11T02:54:31;12.70;99.90
62363;DHT22;48396;48.426;1.500;2022-11-11T02:56:57;12.80;99.90
62363;DHT22;48396;48.426;1.500;2022-11-11T02:59:31;12.80;99.90
62363;DHT22;48396;48.426;1.500;2022-11-11T03:01:57;12.80;99.90
62363;DHT22;48396;48.426;1.500;2022-11-11T03:04:23;12.80;99.90
62363;DHT22;48396;48.426;1.500;2022-11-11T03:06:50;12.80;99.80
62363;DHT22;48396;48.426;1.500;2022-11-11T03:09:15;12.70;99.90
62363;DHT22;48396;48.426;1.500;2022-11-11T03:11:41;12.60;99.90
62363;DHT22;48396;48.426;1.500;2022-11-11T03:14:07;12.60;99.80
62363;DHT22;48396;48.426;1.500;2022-11-11T03:16:33;12.70;99.80
62363;DHT22;48396;48.426;1.500;2022-11-11T03:19:18;12.80;99.70
62363;DHT22;48396;48.426;1.500;2022-11-11T03:21:44;12.90;99.50
62363;DHT22;48396;48.426;1.500;2022-11-11T03:24:10;12.90;99.40
62363;DHT22;48396;48.426;1.500;2022-11-11T03:26:36;12.80;99.40
62363;DHT22;48396;48.426;1.500;2022-11-11T03:29:02;12.80;99.40
62363;DHT22;48396;48.426;1.500;2022-11-11T03:31:27;12.80;99.30
62363;DHT22;48396;48.426;1.500;2022-11-11T03:33:53;12.90;99.20
62363;DHT22;48396;48.426;1.500;2022-11-11T03:36:19;12.90;99.10
62363;DHT22;48396;48.426;1.500;2022-11-11T03:38:45;12.90;98.90
62363;DHT22;48396;48.426;1.500;2022-11-11T03:41:10;12.90;98.80
62363;DHT22;48396;48.426;1.500;2022-11-11T03:43:36;12.90;98.80
62363;DHT22;48396;48.426;1.500;2022-11-11T03:46:03;13.00;98.80
62363;DHT22;48396;48.426;1.500;2022-11-11T03:48:32;12.90;98.70
62363;DHT22;48396;48.426;1.500;2022-11-11T03:50:58;12.90;98.90
62363;DHT22;48396;48.426;1.500;2022-11-11T03:53:24;13.00;98.80
62363;DHT22;48396;48.426;1.500;2022-11-11T03:55:50;13.10;98.60
62363;DHT22;48396;48.426;1.500;2022-11-11T03:58:17;13.00;98.40
62363;DHT22;48396;48.426;1.500;2022-11-11T04:00:43;12.90;98.50
62363;DHT22;48396;48.426;1.500;2022-11-11T04:03:14;12.90;98.60
62363;DHT22;48396;48.426;1.500;2022-11-11T04:06:00;12.90;98.70
62363;DHT22;48396;48.426;1.500;2022-11-11T04:08:44;12.80;98.50
62363;DHT22;48396;48.426;1.500;2022-11-11T04:14:06;12.70;98.50
62363;DHT22;48396;48.426;1.500;2022-11-11T04:16:51;12.70;98.60
62363;DHT22;48396;48.426;1.500;2022-11-11T04:19:17;12.70;98.70
62363;DHT22;48396;48.426;1.500;2022-11-11T04:22:01;12.60;98.60
62363;DHT22;48396;48.426;1.500;2022-11-11T04:24:26;12.50;98.80
62363;DHT22;48396;48.426;1.500;2022-11-11T04:27:13;12.40;98.70
62363;DHT22;48396;48.426;1.500;2022-11-11T04:29:39;12.20;99.00
62363;DHT22;48396;48.426;1.500;2022-11-11T04:32:10;12.20;99.30
62363;DHT22;48396;48.426;1.500;2022-11-11T04:35:05;12.20;99.30
62363;DHT22;48396;48.426;1.500;2022-11-11T04:37:34;12.20;99.10
62363;DHT22;48396;48.426;1.500;2022-11-11T04:40:01;12.20;98.90
62363;DHT22;48396;48.426;1.500;2022-11-11T04:42:45;12.10;99.10
62363;DHT22;48396;48.426;1.500;2022-11-11T04:45:12;12.20;99.20
62363;DHT22;48396;48.426;1.500;2022-11-11T04:50:32;12.40;98.80
62363;DHT22;48396;48.426;1.500;2022-11-11T04:52:59;12.40;98.90
62363;DHT22;48396;48.426;1.500;2022-11-11T04:55:24;12.40;98.80
62363;DHT22;48396;48.426;1.500;2022-11-11T04:58:10;12.50;98.70
62363;DHT22;48396;48.426;1.500;2022-11-11T05:00:35;12.50;98.40
62363;DHT22;48396;48.426;1.500;2022-11-11T05:03:01;12.40;98.60
62363;DHT22;48396;48.426;1.500;2022-11-11T05:05:58;12.40;98.60
62363;DHT22;48396;48.426;1.500;2022-11-11T05:08:47;12.40;98.70
62363;DHT22;48396;48.426;1.500;2022-11-11T05:11:34;12.40;98.70
62363;DHT22;48396;48.426;1.500;2022-11-11T05:14:01;12.40;98.70
62363;DHT22;48396;48.426;1.500;2022-11-11T05:16:48;12.20;99.10
62363;DHT22;48396;48.426;1.500;2022-11-11T05:19:33;12.10;99.30
62363;DHT22;48396;48.426;1.500;2022-11-11T05:24:46;12.20;98.90
62363;DHT22;48396;48.426;1.500;2022-11-11T05:27:30;12.30;98.90
62363;DHT22;48396;48.426;1.500;2022-11-11T05:29:56;12.40;98.60
62363;DHT22;48396;48.426;1.500;2022-11-11T05:32:23;12.40;98.40
62363;DHT22;48396;48.426;1.500;2022-11-11T05:34:48;12.30;98.50
62363;DHT22;48396;48.426;1.500;2022-11-11T05:37:16;12.30;98.60
62363;DHT22;48396;48.426;1.500;2022-11-11T05:39:42;12.30;98.60
62363;DHT22;48396;48.426;1.500;2022-11-11T05:42:09;12.30;98.60
62363;DHT22;48396;48.426;1.500;2022-11-11T05:44:35;12.30;98.70
62363;DHT22;48396;48.426;1.500;2022-11-11T05:47:01;12.40;98.80
62363;DHT22;48396;48.426;1.500;2022-11-11T05:49:27;12.40;98.60
62363;DHT22;48396;48.426;1.500;2022-11-11T05:51:53;12.40;98.50
62363;DHT22;48396;48.426;1.500;2022-11-11T05:54:20;12.30;98.70
62363;DHT22;48396;48.426;1.500;2022-11-11T05:56:46;12.30;98.80
62363;DHT22;48396;48.426;1.500;2022-11-11T05:59:12;12.40;98.70
62363;DHT22;48396;48.426;1.500;2022-11-11T06:01:38;12.30;98.90
62363;DHT22;48396;48.426;1.500;2022-11-11T06:04:04;12.30;99.00
62363;DHT22;48396;48.426;1.500;2022-11-11T06:06:31;12.30;98.90
62363;DHT22;48396;48.426;1.500;2022-11-11T06:08:57;12.30;98.90
62363;DHT22;48396;48.426;1.500;2022-11-11T06:11:24;12.20;99.00
62363;DHT22;48396;48.426;1.500;2022-11-11T06:13:50;12.30;99.10
62363;DHT22;48396;48.426;1.500;2022-11-11T06:16:16;12.30;99.10
62363;DHT22;48396;48.426;1.500;2022-11-11T06:18:42;12.40;99.00
62363;DHT22;48396;48.426;1.500;2022-11-11T06:21:07;12.40;99.00
62363;DHT22;48396;48.426;1.500;2022-11-11T06:23:33;12.40;99.10
62363;DHT22;48396;48.426;1.500;2022-11-11T06:25:59;12.40;99.10
62363;DHT22;48396;48.426;1.500;2022-11-11T06:28:46;12.50;98.80
62363;DHT22;48396;48.426;1.500;2022-11-11T06:31:20;12.40;98.90
62363;DHT22;48396;48.426;1.500;2022-11-11T06:33:45;12.50;98.80
62363;DHT22;48396;48.426;1.500;2022-11-11T06:36:13;12.60;98.80
62363;DHT22;48396;48.426;1.500;2022-11-11T06:38:40;12.70;98.50
62363;DHT22;48396;48.426;1.500;2022-11-11T06:41:07;12.60;98.50
62363;DHT22;48396;48.426;1.500;2022-11-11T06:43:34;12.60;98.60
62363;DHT22;48396;48.426;1.500;2022-11-11T06:46:00;12.60;98.70
62363;DHT22;48396;48.426;1.500;2022-11-11T06:48:27;12.60;98.60
62363;DHT22;48396;48.426;1.500;2022-11-11T06:50:54;12.60;98.60
62363;DHT22;48396;48.426;1.500;2022-11-11T06:53:21;12.60;98.50
62363;DHT22;48396;48.426;1.500;2022-11-11T06:55:47;12.60;98.70
62363;DHT22;48396;48.426;1.500;2022-11-11T06:58:17;12.60;98.60
62363;DHT22;48396;48.426;1.500;2022-11-11T07:00:45;12.60;98.60
62363;DHT22;48396;48.426;1.500;2022-11-11T07:03:13;12.70;98.40
62363;DHT22;48396;48.426;1.500;2022-11-11T07:05:41;12.70;98.50
62363;DHT22;48396;48.426;1.500;2022-11-11T07:08:10;12.60;98.60
62363;DHT22;48396;48.426;1.500;2022-11-11T07:10:37;12.50;98.80
62363;DHT22;48396;48.426;1.500;2022-11-11T07:13:05;12.60;98.70
62363;DHT22;48396;48.426;1.500;2022-11-11T07:15:31;12.50;98.80
62363;DHT22;48396;48.426;1.500;2022-11-11T07:17:57;12.50;98.90
62363;DHT22;48396;48.426;1.500;2022-11-11T07:20:23;12.60;98.90
62363;DHT22;48396;48.426;1.500;2022-11-11T07:22:49;12.60;98.80
62363;DHT22;48396;48.426;1.500;2022-11-11T07:25:15;12.70;98.80
62363;DHT22;48396;48.426;1.500;2022-11-11T07:27:41;12.70;98.80
62363;DHT22;48396;48.426;1.500;2022-11-11T07:30:09;12.70;98.70
62363;DHT22;48396;48.426;1.500;2022-11-11T07:32:36;12.70;98.80
62363;DHT22;48396;48.426;1.500;2022-11-11T07:35:03;12.70;98.80
62363;DHT22;48396;48.426;1.500;2022-11-11T07:37:32;12.60;98.90
62363;DHT22;48396;48.426;1.500;2022-11-11T07:39:57;12.60;99.10
62363;DHT22;48396;48.426;1.500;2022-11-11T07:42:23;12.60;99.10
62363;DHT22;48396;48.426;1.500;2022-11-11T07:44:49;12.50;99.20
62363;DHT22;48396;48.426;1.500;2022-11-11T07:47:14;12.50;99.10
62363;DHT22;48396;48.426;1.500;2022-11-11T07:49:40;12.50;99.20
62363;DHT22;48396;48.426;1.500;2022-11-11T07:52:06;12.50;99.40
62363;DHT22;48396;48.426;1.500;2022-11-11T07:54:32;12.50;99.30
62363;DHT22;48396;48.426;1.500;2022-11-11T07:56:57;12.50;99.40
62363;DHT22;48396;48.426;1.500;2022-11-11T07:59:23;12.60;99.30
62363;DHT22;48396;48.426;1.500;2022-11-11T08:01:49;12.70;99.00
62363;DHT22;48396;48.426;1.500;2022-11-11T08:04:14;12.70;98.90
62363;DHT22;48396;48.426;1.500;2022-11-11T08:06:40;12.50;99.20
62363;DHT22;48396;48.426;1.500;2022-11-11T08:09:06;12.60;99.30
62363;DHT22;48396;48.426;1.500;2022-11-11T08:11:32;12.60;99.20
62363;DHT22;48396;48.426;1.500;2022-11-11T08:14:16;12.60;99.30
62363;DHT22;48396;48.426;1.500;2022-11-11T08:16:41;12.60;99.20
62363;DHT22;48396;48.426;1.500;2022-11-11T08:19:07;12.60;99.20
62363;DHT22;48396;48.426;1.500;2022-11-11T08:21:33;12.60;99.30
62363;DHT22;48396;48.426;1.500;2022-11-11T08:23:59;12.60;99.30
62363;DHT22;48396;48.426;1.500;2022-11-11T08:26:26;12.70;99.20
62363;DHT22;48396;48.426;1.500;2022-11-11T08:28:52;12.70;99.20
62363;DHT22;48396;48.426;1.500;2022-11-11T08:31:18;12.70;99.10
62363;DHT22;48396;48.426;1.500;2022-11-11T08:33:44;12.60;99.00
62363;DHT22;48396;48.426;1.500;2022-11-11T08:36:10;12.60;99.00
62363;DHT22;48396;48.426;1.500;2022-11-11T08:38:37;12.70;98.90
62363;DHT22;48396;48.426;1.500;2022-11-11T08:41:05;12.70;98.90
62363;DHT22;48396;48.426;1.500;2022-11-11T08:43:32;12.70;99.00
62363;DHT22;48396;48.426;1.500;2022-11-11T08:46:02;12.70;99.00
62363;DHT22;48396;48.426;1.500;2022-11-11T08:48:29;12.70;98.90
62363;DHT22;48396;48.426;1.500;2022-11-11T08:50:56;12.70;98.90
62363;DHT22;48396;48.426;1.500;2022-11-11T08:53:22;12.70;98.80
62363;DHT22;48396;48.426;1.500;2022-11-11T08:55:47;12.60;98.80
62363;DHT22;48396;48.426;1.500;2022-11-11T08:58:13;12.60;98.70
62363;DHT22;48396;48.426;1.500;2022-11-11T09:00:39;12.60;98.80
62363;DHT22;48396;48.426;1.500;2022-11-11T09:03:08;12.70;98.70
62363;DHT22;48396;48.426;1.500;2022-11-11T09:05:36;12.60;98.70
62363;DHT22;48396;48.426;1.500;2022-11-11T09:08:03;12.50;99.10
62363;DHT22;48396;48.426;1.500;2022-11-11T09:10:32;12.50;99.20
62363;DHT22;48396;48.426;1.500;2022-11-11T09:12:58;12.50;99.10
62363;DHT22;48396;48.426;1.500;2022-11-11T09:15:25;12.40;99.20
62363;DHT22;48396;48.426;1.500;2022-11-11T09:17:51;12.50;99.10
62363;DHT22;48396;48.426;1.500;2022-11-11T09:20:17;12.50;99.20
62363;DHT22;48396;48.426;1.500;2022-11-11T09:22:47;12.50;99.20
62363;DHT22;48396;48.426;1.500;2022-11-11T09:25:13;12.50;99.20
62363;DHT22;48396;48.426;1.500;2022-11-11T09:27:39;12.50;99.30
62363;DHT22;48396;48.426;1.500;2022-11-11T09:30:06;12.60;99.60
62363;DHT22;48396;48.426;1.500;2022-11-11T09:32:33;12.60;99.30
62363;DHT22;48396;48.426;1.500;2022-11-11T09:34:58;12.70;99.20
62363;DHT22;48396;48.426;1.500;2022-11-11T09:37:25;12.70;99.40
62363;DHT22;48396;48.426;1.500;2022-11-11T09:39:51;12.80;99.10
62363;DHT22;48396;48.426;1.500;2022-11-11T09:42:29;12.70;99.20
62363;DHT22;48396;48.426;1.500;2022-11-11T09:45:18;12.70;99.30
62363;DHT22;48396;48.426;1.500;2022-11-11T09:50:42;12.70;99.40
62363;DHT22;48396;48.426;1.500;2022-11-11T09:53:20;12.60;99.40
62363;DHT22;48396;48.426;1.500;2022-11-11T09:55:57;12.60;99.40
62363;DHT22;48396;48.426;1.500;2022-11-11T09:58:34;12.70;99.30
62363;DHT22;48396;48.426;1.500;2022-11-11T10:01:23;12.70;99.30
62363;DHT22;48396;48.426;1.500;2022-11-11T10:03:59;12.70;99.40
62363;DHT22;48396;48.426;1.500;2022-11-11T10:06:33;12.80;99.20
62363;DHT22;48396;48.426;1.500;2022-11-11T10:09:12;12.80;99.10
62363;DHT22;48396;48.426;1.500;2022-11-11T10:12:00;12.70;99.20
62363;DHT22;48396;48.426;1.500;2022-11-11T10:14:33;12.60;99.40
62363;DHT22;48396;48.426;1.500;2022-11-11T10:22:37;12.80;99.40
62363;DHT22;48396;48.426;1.500;2022-11-11T10:25:28;12.70;99.40
62363;DHT22;48396;48.426;1.500;2022-11-11T10:27:57;12.70;99.60
62363;DHT22;48396;48.426;1.500;2022-11-11T10:30:29;12.70;99.40
62363;DHT22;48396;48.426;1.500;2022-11-11T10:33:03;12.70;99.60
62363;DHT22;48396;48.426;1.500;2022-11-11T10:35:31;12.80;99.50
62363;DHT22;48396;48.426;1.500;2022-11-11T10:40:56;12.80;99.40
62363;DHT22;48396;48.426;1.500;2022-11-11T10:43:27;12.90;99.30
62363;DHT22;48396;48.426;1.500;2022-11-11T10:48:52;12.80;99.40
62363;DHT22;48396;48.426;1.500;2022-11-11T10:51:21;13.00;99.20
62363;DHT22;48396;48.426;1.500;2022-11-11T10:54:05;13.00;99.20
62363;DHT22;48396;48.426;1.500;2022-11-11T10:56:39;13.10;99.00
62363;DHT22;48396;48.426;1.500;2022-11-11T11:02:23;13.10;99.10
62363;DHT22;48396;48.426;1.500;2022-11-11T11:07:48;13.00;99.00
62363;DHT22;48396;48.426;1.500;2022-11-11T11:10:23;13.00;99.40
62363;DHT22;48396;48.426;1.500;2022-11-11T11:12:58;13.10;99.40
62363;DHT22;48396;48.426;1.500;2022-11-11T11:15:29;13.20;99.30
62363;DHT22;48396;48.426;1.500;2022-11-11T11:20:28;13.40;98.80
62363;DHT22;48396;48.426;1.500;2022-11-11T11:22:55;13.40;98.70
62363;DHT22;48396;48.426;1.500;2022-11-11T11:25:25;13.50;98.60
62363;DHT22;48396;48.426;1.500;2022-11-11T11:27:52;13.50;98.60
62363;DHT22;48396;48.426;1.500;2022-11-11T11:30:28;13.40;98.60
62363;DHT22;48396;48.426;1.500;2022-11-11T11:35:47;13.50;98.80
62363;DHT22;48396;48.426;1.500;2022-11-11T11:38:13;13.60;98.60
62363;DHT22;48396;48.426;1.500;2022-11-11T11:40:52;13.50;98.60
62363;DHT22;48396;48.426;1.500;2022-11-11T11:43:24;13.40;98.80
62363;DHT22;48396;48.426;1.500;2022-11-11T11:45:58;13.50;98.70
62363;DHT22;48396;48.426;1.500;2022-11-11T11:48:40;13.50;98.80
62363;DHT22;48396;48.426;1.500;2022-11-11T11:51:23;13.50;99.00
62363;DHT22;48396;48.426;1.500;2022-11-11T11:54:02;13.50;98.90
62363;DHT22;48396;48.426;1.500;2022-11-11T11:56:44;13.60;98.90
62363;DHT22;48396;48.426;1.500;2022-11-11T11:59:36;13.70;98.90
62363;DHT22;48396;48.426;1.500;2022-11-11T12:12:36;13.80;98.90
62363;DHT22;48396;48.426;1.500;2022-11-11T12:20:54;13.80;98.80
62363;DHT22;48396;48.426;1.500;2022-11-11T12:23:44;13.70;98.80
62363;DHT22;48396;48.426;1.500;2022-11-11T12:26:44;13.80;98.90
62363;DHT22;48396;48.426;1.500;2022-11-11T12:38:07;13.80;99.50
62363;DHT22;48396;48.426;1.500;2022-11-11T12:40:13;13.90;99.00
62363;DHT22;48396;48.426;1.500;2022-11-11T12:45:22;14.10;98.80
62363;DHT22;48396;48.426;1.500;2022-11-11T12:53:32;14.10;98.90
62363;DHT22;48396;48.426;1.500;2022-11-11T12:56:03;14.20;98.90
62363;DHT22;48396;48.426;1.500;2022-11-11T13:12:35;14.40;98.80
62363;DHT22;48396;48.426;1.500;2022-11-11T13:15:14;14.60;98.60
62363;DHT22;48396;48.426;1.500;2022-11-11T13:17:41;14.60;98.50
62363;DHT22;48396;48.426;1.500;2022-11-11T13:22:54;14.80;98.20
62363;DHT22;48396;48.426;1.500;2022-11-11T13:25:31;15.00;98.00
62363;DHT22;48396;48.426;1.500;2022-11-11T13:28:18;15.00;97.70
62363;DHT22;48396;48.426;1.500;2022-11-11T13:30:56;15.00;97.70
62363;DHT22;48396;48.426;1.500;2022-11-11T13:33:27;15.10;97.60
62363;DHT22;48396;48.426;1.500;2022-11-11T13:36:01;15.10;97.60
62363;DHT22;48396;48.426;1.500;2022-11-11T13:39:18;15.20;97.50
62363;DHT22;48396;48.426;1.500;2022-11-11T13:41:35;15.20;97.40
62363;DHT22;48396;48.426;1.500;2022-11-11T13:44:06;15.10;97.70
62363;DHT22;48396;48.426;1.500;2022-11-11T13:46:47;15.20;97.70
62363;DHT22;48396;48.426;1.500;2022-11-11T13:49:35;15.20;97.60
62363;DHT22;48396;48.426;1.500;2022-11-11T13:52:05;15.40;97.60
62363;DHT22;48396;48.426;1.500;2022-11-11T13:54:48;15.40;97.50
62363;DHT22;48396;48.426;1.500;2022-11-11T13:57:20;15.60;97.40
62363;DHT22;48396;48.426;1.500;2022-11-11T14:12:55;16.40;96.60
62363;DHT22;48396;48.426;1.500;2022-11-11T14:15:44;16.40;96.70
62363;DHT22;48396;48.426;1.500;2022-11-11T14:20:46;16.40;96.60
62363;DHT22;48396;48.426;1.500;2022-11-11T14:34:04;16.70;96.20
62363;DHT22;48396;48.426;1.500;2022-11-11T14:36:41;16.80;96.10
62363;DHT22;48396;48.426;1.500;2022-11-11T14:39:26;17.00;95.80
62363;DHT22;48396;48.426;1.500;2022-11-11T14:41:55;16.90;95.80
62363;DHT22;48396;48.426;1.500;2022-11-11T14:49:47;17.10;95.60
62363;DHT22;48396;48.426;1.500;2022-11-11T14:57:48;17.40;95.10
62363;DHT22;48396;48.426;1.500;2022-11-11T15:00:18;17.50;95.10
62363;DHT22;48396;48.426;1.500;2022-11-11T15:08:25;17.70;94.70
62363;DHT22;48396;48.426;1.500;2022-11-11T15:28:18;18.10;94.40
62363;DHT22;48396;48.426;1.500;2022-11-11T15:37:24;17.80;94.50
62363;DHT22;48396;48.426;1.500;2022-11-11T15:39:31;17.80;94.60
62363;DHT22;48396;48.426;1.500;2022-11-11T15:41:58;17.70;94.50
62363;DHT22;48396;48.426;1.500;2022-11-11T15:44:29;17.60;94.50
62363;DHT22;48396;48.426;1.500;2022-11-11T15:46:56;17.60;94.60
62363;DHT22;48396;48.426;1.500;2022-11-11T15:49:39;17.60;94.70
62363;DHT22;48396;48.426;1.500;2022-11-11T15:54:54;17.60;94.70
62363;DHT22;48396;48.426;1.500;2022-11-11T15:57:28;17.50;94.70
62363;DHT22;48396;48.426;1.500;2022-11-11T15:59:56;17.40;94.70
62363;DHT22;48396;48.426;1.500;2022-11-11T16:02:25;17.30;94.90
62363;DHT22;48396;48.426;1.500;2022-11-11T16:05:00;17.20;94.90
62363;DHT22;48396;48.426;1.500;2022-11-11T16:07:35;17.20;95.10
62363;DHT22;48396;48.426;1.500;2022-11-11T16:10:07;17.00;95.10
62363;DHT22;48396;48.426;1.500;2022-11-11T16:13:00;17.00;95.30
62363;DHT22;48396;48.426;1.500;2022-11-11T16:18:33;16.90;95.30
62363;DHT22;48396;48.426;1.500;2022-11-11T16:21:10;16.80;95.40
62363;DHT22;48396;48.426;1.500;2022-11-11T16:23:38;16.80;95.40
62363;DHT22;48396;48.426;1.500;2022-11-11T16:26:05;16.70;95.50
62363;DHT22;48396;48.426;1.500;2022-11-11T16:28:45;16.60;95.60
62363;DHT22;48396;48.426;1.500;2022-11-11T16:34:21;16.50;95.80
62363;DHT22;48396;48.426;1.500;2022-11-11T16:37:06;16.30;96.10
62363;DHT22;48396;48.426;1.500;2022-11-11T16:39:33;16.30;95.90
62363;DHT22;48396;48.426;1.500;2022-11-11T16:42:06;16.30;95.80
62363;DHT22;48396;48.426;1.500;2022-11-11T16:50:19;16.20;96.00
62363;DHT22;48396;48.426;1.500;2022-11-11T16:53:03;16.10;96.10
62363;DHT22;48396;48.426;1.500;2022-11-11T16:55:34;16.10;96.10
62363;DHT22;48396;48.426;1.500;2022-11-11T16:58:21;16.10;96.10
62363;DHT22;48396;48.426;1.500;2022-11-11T17:00:47;16.00;96.10
62363;DHT22;48396;48.426;1.500;2022-11-11T17:03:22;15.90;96.10
62363;DHT22;48396;48.426;1.500;2022-11-11T17:08:42;15.90;96.10
62363;DHT22;48396;48.426;1.500;2022-11-11T17:11:55;15.90;96.10
62363;DHT22;48396;48.426;1.500;2022-11-11T17:13:56;15.90;96.10
62363;DHT22;48396;48.426;1.500;2022-11-11T17:16:22;15.90;96.10
62363;DHT22;48396;48.426;1.500;2022-11-11T17:18:47;15.90;96.20
62363;DHT22;48396;48.426;1.500;2022-11-11T17:21:14;15.80;96.30
62363;DHT22;48396;48.426;1.500;2022-11-11T17:23:39;15.90;96.20
62363;DHT22;48396;48.426;1.500;2022-11-11T17:26:05;15.80;96.20
62363;DHT22;48396;48.426;1.500;2022-11-11T17:28:32;15.80;96.20
62363;DHT22;48396;48.426;1.500;2022-11-11T17:31:06;15.70;96.30
62363;DHT22;48396;48.426;1.500;2022-11-11T17:33:32;15.70;96.30
62363;DHT22;48396;48.426;1.500;2022-11-11T17:35:58;15.70;96.30
62363;DHT22;48396;48.426;1.500;2022-11-11T17:38:26;15.70;96.30
62363;DHT22;48396;48.426;1.500;2022-11-11T17:40:51;15.70;96.30
62363;DHT22;48396;48.426;1.500;2022-11-11T17:43:17;15.70;96.30
62363;DHT22;48396;48.426;1.500;2022-11-11T17:45:43;15.60;96.30
62363;DHT22;48396;48.426;1.500;2022-11-11T17:48:09;15.60;96.30
62363;DHT22;48396;48.426;1.500;2022-11-11T17:50:37;15.60;96.30
62363;DHT22;48396;48.426;1.500;2022-11-11T17:53:04;15.60;96.30
62363;DHT22;48396;48.426;1.500;2022-11-11T17:55:31;15.60;96.40
62363;DHT22;48396;48.426;1.500;2022-11-11T17:57:58;15.50;96.40
62363;DHT22;48396;48.426;1.500;2022-11-11T18:00:24;15.50;96.50
62363;DHT22;48396;48.426;1.500;2022-11-11T18:02:50;15.50;96.50
62363;DHT22;48396;48.426;1.500;2022-11-11T18:05:16;15.40;96.70
62363;DHT22;48396;48.426;1.500;2022-11-11T18:07:41;15.50;96.70
62363;DHT22;48396;48.426;1.500;2022-11-11T18:10:08;15.50;96.40
62363;DHT22;48396;48.426;1.500;2022-11-11T18:12:35;15.50;96.20
62363;DHT22;48396;48.426;1.500;2022-11-11T18:15:01;15.40;96.20
62363;DHT22;48396;48.426;1.500;2022-11-11T18:17:26;15.40;96.30
62363;DHT22;48396;48.426;1.500;2022-11-11T18:19:52;15.40;96.40
62363;DHT22;48396;48.426;1.500;2022-11-11T18:22:18;15.30;96.40
62363;DHT22;48396;48.426;1.500;2022-11-11T18:24:44;15.30;96.40
62363;DHT22;48396;48.426;1.500;2022-11-11T18:27:09;15.30;96.40
62363;DHT22;48396;48.426;1.500;2022-11-11T18:29:35;15.20;96.50
62363;DHT22;48396;48.426;1.500;2022-11-11T18:32:02;15.20;96.50
62363;DHT22;48396;48.426;1.500;2022-11-11T18:34:28;15.20;96.50
62363;DHT22;48396;48.426;1.500;2022-11-11T18:36:54;15.20;96.50
62363;DHT22;48396;48.426;1.500;2022-11-11T18:39:20;15.20;96.50